sensor_id;sensor_type;location;lat;lon;timestamp;pressure;altitude;pressure_sealevel;temperature;humidity
26657;BME280;14279;50.010;8.260;2022-07-10T00:02:16;101233.06;;;17.53;65.33
26657;BME280;14279;50.010;8.260;2022-07-10T00:04:41;101224.88;;;17.57;65.37
26657;BME280;14279;50.010;8.260;2022-07-10T00:07:07;101228.47;;;17.56;64.80
26657;BME280;14279;50.010;8.260;2022-07-10T00:09:32;101228.66;;;17.39;65.00
26657;BME280;14279;50.010;8.260;2022-07-10T00:11:57;101229.75;;;17.35;64.18
26657;BME280;14279;50.010;8.260;2022-07-10T00:14:23;101228.91;;;17.49;64.10
26657;BME280;14279;50.010;8.260;2022-07-10T00:16:48;101237.41;;;17.39;63.93
26657;BME280;14279;50.010;8.260;2022-07-10T00:19:13;101245.94;;;17.28;64.15
26657;BME280;14279;50.010;8.260;2022-07-10T00:21:38;101249.13;;;17.34;64.63
26657;BME280;14279;50.010;8.260;2022-07-10T00:24:04;101235.44;;;17.28;64.45
26657;BME280;14279;50.010;8.260;2022-07-10T00:26:29;101236.38;;;17.27;64.67
26657;BME280;14279;50.010;8.260;2022-07-10T00:28:55;101231.94;;;17.28;64.58
26657;BME280;14279;50.010;8.260;2022-07-10T00:31:20;101230.06;;;17.30;64.82
26657;BME280;14279;50.010;8.260;2022-07-10T00:33:46;101238.41;;;17.22;64.85
26657;BME280;14279;50.010;8.260;2022-07-10T00:36:11;101246.50;;;17.19;64.75
26657;BME280;14279;50.010;8.260;2022-07-10T00:38:36;101228.25;;;17.16;64.54
26657;BME280;14279;50.010;8.260;2022-07-10T00:41:01;101239.78;;;16.99;64.67
26657;BME280;14279;50.010;8.260;2022-07-10T00:43:26;101253.63;;;16.87;64.87
26657;BME280;14279;50.010;8.260;2022-07-10T00:45:52;101238.78;;;16.86;65.43
26657;BME280;14279;50.010;8.260;2022-07-10T00:48:17;101239.91;;;16.81;65.74
26657;BME280;14279;50.010;8.260;2022-07-10T00:50:43;101246.69;;;16.86;65.93
26657;BME280;14279;50.010;8.260;2022-07-10T00:53:09;101240.31;;;16.90;65.97
26657;BME280;14279;50.010;8.260;2022-07-10T00:55:35;101245.75;;;16.87;65.86
26657;BME280;14279;50.010;8.260;2022-07-10T00:58:01;101249.31;;;16.86;66.08
26657;BME280;14279;50.010;8.260;2022-07-10T01:00:27;101255.63;;;16.83;66.38
26657;BME280;14279;50.010;8.260;2022-07-10T01:02:53;101250.16;;;16.86;65.86
26657;BME280;14279;50.010;8.260;2022-07-10T01:05:18;101248.69;;;16.66;66.44
26657;BME280;14279;50.010;8.260;2022-07-10T01:07:44;101248.22;;;16.59;67.16
26657;BME280;14279;50.010;8.260;2022-07-10T01:10:09;101252.38;;;16.47;67.40
26657;BME280;14279;50.010;8.260;2022-07-10T01:12:35;101247.44;;;16.57;67.45
26657;BME280;14279;50.010;8.260;2022-07-10T01:15:01;101251.94;;;16.55;67.44
26657;BME280;14279;50.010;8.260;2022-07-10T01:17:27;101244.69;;;16.44;67.99
26657;BME280;14279;50.010;8.260;2022-07-10T01:19:54;101249.56;;;16.50;67.84
26657;BME280;14279;50.010;8.260;2022-07-10T01:22:19;101244.06;;;16.55;67.35
26657;BME280;14279;50.010;8.260;2022-07-10T01:24:45;101259.09;;;16.37;68.00
26657;BME280;14279;50.010;8.260;2022-07-10T01:27:10;101255.03;;;16.15;68.16
26657;BME280;14279;50.010;8.260;2022-07-10T01:29:36;101259.97;;;16.21;67.78
26657;BME280;14279;50.010;8.260;2022-07-10T01:32:02;101258.69;;;16.13;68.36
26657;BME280;14279;50.010;8.260;2022-07-10T01:34:27;101243.81;;;16.28;68.24
26657;BME280;14279;50.010;8.260;2022-07-10T01:36:52;101247.22;;;16.14;68.21
26657;BME280;14279;50.010;8.260;2022-07-10T01:39:18;101255.19;;;16.12;68.54
26657;BME280;14279;50.010;8.260;2022-07-10T01:41:43;101248.41;;;16.08;68.76
26657;BME280;14279;50.010;8.260;2022-07-10T01:44:08;101255.09;;;16.14;68.21
26657;BME280;14279;50.010;8.260;2022-07-10T01:46:34;101259.84;;;16.23;67.79
26657;BME280;14279;50.010;8.260;2022-07-10T01:48:59;101258.16;;;16.06;67.98
26657;BME280;14279;50.010;8.260;2022-07-10T01:51:24;101268.09;;;15.83;68.22
26657;BME280;14279;50.010;8.260;2022-07-10T01:53:50;101261.63;;;15.90;67.97
26657;BME280;14279;50.010;8.260;2022-07-10T01:56:15;101255.72;;;15.87;67.87
26657;BME280;14279;50.010;8.260;2022-07-10T01:58:41;101255.72;;;15.87;67.93
26657;BME280;14279;50.010;8.260;2022-07-10T02:01:07;101256.38;;;15.90;67.55
26657;BME280;14279;50.010;8.260;2022-07-10T02:03:32;101243.69;;;15.99;67.19
26657;BME280;14279;50.010;8.260;2022-07-10T02:06:16;101260.38;;;15.98;67.58
26657;BME280;14279;50.010;8.260;2022-07-10T02:08:41;101269.97;;;15.81;67.82
26657;BME280;14279;50.010;8.260;2022-07-10T02:11:07;101263.63;;;15.85;67.61
26657;BME280;14279;50.010;8.260;2022-07-10T02:13:32;101270.59;;;15.86;67.62
26657;BME280;14279;50.010;8.260;2022-07-10T02:15:58;101276.66;;;15.71;67.86
26657;BME280;14279;50.010;8.260;2022-07-10T02:18:24;101269.19;;;15.63;68.18
26657;BME280;14279;50.010;8.260;2022-07-10T02:20:51;101272.84;;;15.76;67.56
26657;BME280;14279;50.010;8.260;2022-07-10T02:23:16;101260.50;;;15.78;67.51
26657;BME280;14279;50.010;8.260;2022-07-10T02:25:42;101256.66;;;15.68;67.54
26657;BME280;14279;50.010;8.260;2022-07-10T02:28:08;101254.91;;;15.85;66.95
26657;BME280;14279;50.010;8.260;2022-07-10T02:30:34;101258.25;;;15.55;67.24
26657;BME280;14279;50.010;8.260;2022-07-10T02:32:59;101260.44;;;15.62;67.33
26657;BME280;14279;50.010;8.260;2022-07-10T02:35:24;101265.50;;;15.50;67.59
26657;BME280;14279;50.010;8.260;2022-07-10T02:37:50;101271.53;;;15.52;66.95
26657;BME280;14279;50.010;8.260;2022-07-10T02:40:15;101262.91;;;15.32;67.64
26657;BME280;14279;50.010;8.260;2022-07-10T02:42:40;101271.41;;;15.37;67.46
26657;BME280;14279;50.010;8.260;2022-07-10T02:45:06;101262.81;;;15.33;68.10
26657;BME280;14279;50.010;8.260;2022-07-10T02:47:32;101270.03;;;15.30;67.39
26657;BME280;14279;50.010;8.260;2022-07-10T02:49:57;101262.06;;;15.31;67.42
26657;BME280;14279;50.010;8.260;2022-07-10T02:52:22;101263.44;;;15.39;67.30
26657;BME280;14279;50.010;8.260;2022-07-10T02:54:48;101256.81;;;15.31;67.60
26657;BME280;14279;50.010;8.260;2022-07-10T02:57:13;101268.88;;;15.18;67.28
26657;BME280;14279;50.010;8.260;2022-07-10T02:59:38;101266.50;;;15.13;67.40
26657;BME280;14279;50.010;8.260;2022-07-10T03:02:04;101266.34;;;15.16;68.41
26657;BME280;14279;50.010;8.260;2022-07-10T03:04:29;101261.53;;;15.25;67.37
26657;BME280;14279;50.010;8.260;2022-07-10T03:06:55;101255.22;;;15.29;66.81
26657;BME280;14279;50.010;8.260;2022-07-10T03:09:20;101257.00;;;15.11;67.98
26657;BME280;14279;50.010;8.260;2022-07-10T03:11:45;101250.50;;;15.18;67.08
26657;BME280;14279;50.010;8.260;2022-07-10T03:14:10;101255.75;;;15.18;66.88
26657;BME280;14279;50.010;8.260;2022-07-10T03:16:36;101263.16;;;15.10;67.59
26657;BME280;14279;50.010;8.260;2022-07-10T03:19:01;101277.28;;;15.07;66.76
26657;BME280;14279;50.010;8.260;2022-07-10T03:21:26;101261.56;;;15.07;66.43
26657;BME280;14279;50.010;8.260;2022-07-10T03:23:52;101266.16;;;15.20;66.74
26657;BME280;14279;50.010;8.260;2022-07-10T03:26:17;101265.63;;;15.13;67.12
26657;BME280;14279;50.010;8.260;2022-07-10T03:28:42;101269.94;;;15.14;66.74
26657;BME280;14279;50.010;8.260;2022-07-10T03:31:07;101270.19;;;15.09;66.13
26657;BME280;14279;50.010;8.260;2022-07-10T03:33:33;101282.16;;;14.97;66.54
26657;BME280;14279;50.010;8.260;2022-07-10T03:35:58;101269.72;;;14.83;66.15
26657;BME280;14279;50.010;8.260;2022-07-10T03:38:26;101281.97;;;14.83;66.01
26657;BME280;14279;50.010;8.260;2022-07-10T03:40:51;101280.28;;;14.82;65.75
26657;BME280;14279;50.010;8.260;2022-07-10T03:43:16;101281.91;;;14.84;65.90
26657;BME280;14279;50.010;8.260;2022-07-10T03:45:41;101292.63;;;14.97;65.82
26657;BME280;14279;50.010;8.260;2022-07-10T03:48:07;101291.53;;;14.84;65.66
26657;BME280;14279;50.010;8.260;2022-07-10T03:50:32;101287.69;;;14.91;65.69
26657;BME280;14279;50.010;8.260;2022-07-10T03:52:58;101288.56;;;14.92;65.62
26657;BME280;14279;50.010;8.260;2022-07-10T03:55:23;101282.16;;;14.97;65.74
26657;BME280;14279;50.010;8.260;2022-07-10T03:57:48;101286.09;;;14.88;65.75
26657;BME280;14279;50.010;8.260;2022-07-10T04:00:23;101294.63;;;14.75;65.02
26657;BME280;14279;50.010;8.260;2022-07-10T04:02:59;101290.94;;;14.79;65.68
26657;BME280;14279;50.010;8.260;2022-07-10T04:05:26;101296.72;;;14.85;65.72
26657;BME280;14279;50.010;8.260;2022-07-10T04:07:52;101292.69;;;14.78;65.75
26657;BME280;14279;50.010;8.260;2022-07-10T04:10:18;101292.50;;;15.00;65.13
26657;BME280;14279;50.010;8.260;2022-07-10T04:12:44;101286.38;;;14.82;65.58
26657;BME280;14279;50.010;8.260;2022-07-10T04:15:10;101290.94;;;14.79;65.33
26657;BME280;14279;50.010;8.260;2022-07-10T04:17:35;101295.41;;;14.77;64.92
26657;BME280;14279;50.010;8.260;2022-07-10T04:20:00;101292.63;;;14.80;65.44
26657;BME280;14279;50.010;8.260;2022-07-10T04:22:26;101302.63;;;14.71;65.85
26657;BME280;14279;50.010;8.260;2022-07-10T04:24:53;101303.25;;;14.77;65.72
26657;BME280;14279;50.010;8.260;2022-07-10T04:27:19;101306.22;;;14.69;65.46
26657;BME280;14279;50.010;8.260;2022-07-10T04:29:44;101311.66;;;14.64;65.60
26657;BME280;14279;50.010;8.260;2022-07-10T04:32:09;101305.41;;;14.68;65.36
26657;BME280;14279;50.010;8.260;2022-07-10T04:34:34;101303.00;;;14.45;65.57
26657;BME280;14279;50.010;8.260;2022-07-10T04:37:00;101306.56;;;14.61;65.39
26657;BME280;14279;50.010;8.260;2022-07-10T04:39:25;101316.00;;;14.65;64.88
26657;BME280;14279;50.010;8.260;2022-07-10T04:41:50;101309.72;;;14.69;64.80
26657;BME280;14279;50.010;8.260;2022-07-10T04:44:16;101319.28;;;14.70;64.90
26657;BME280;14279;50.010;8.260;2022-07-10T04:46:41;101329.38;;;14.78;64.08
26657;BME280;14279;50.010;8.260;2022-07-10T04:49:06;101334.38;;;14.83;63.75
26657;BME280;14279;50.010;8.260;2022-07-10T04:51:31;101338.84;;;14.81;63.49
26657;BME280;14279;50.010;8.260;2022-07-10T04:53:57;101336.03;;;14.66;64.24
26657;BME280;14279;50.010;8.260;2022-07-10T04:56:22;101341.97;;;14.89;63.51
26657;BME280;14279;50.010;8.260;2022-07-10T04:58:47;101345.53;;;14.69;64.12
26657;BME280;14279;50.010;8.260;2022-07-10T05:01:13;101339.72;;;14.62;64.11
26657;BME280;14279;50.010;8.260;2022-07-10T05:03:38;101335.97;;;14.68;64.36
26657;BME280;14279;50.010;8.260;2022-07-10T05:06:04;101337.25;;;14.59;64.48
26657;BME280;14279;50.010;8.260;2022-07-10T05:08:29;101341.66;;;14.58;65.34
26657;BME280;14279;50.010;8.260;2022-07-10T05:10:54;101340.25;;;14.70;64.22
26657;BME280;14279;50.010;8.260;2022-07-10T05:13:19;101343.28;;;14.42;64.71
26657;BME280;14279;50.010;8.260;2022-07-10T05:15:46;101333.78;;;14.78;63.56
26657;BME280;14279;50.010;8.260;2022-07-10T05:18:12;101332.09;;;14.77;63.95
26657;BME280;14279;50.010;8.260;2022-07-10T05:20:37;101331.47;;;14.71;63.42
26657;BME280;14279;50.010;8.260;2022-07-10T05:23:06;101332.94;;;14.77;63.88
26657;BME280;14279;50.010;8.260;2022-07-10T05:25:32;101331.38;;;14.73;63.78
26657;BME280;14279;50.010;8.260;2022-07-10T05:27:57;101331.44;;;15.08;62.78
26657;BME280;14279;50.010;8.260;2022-07-10T05:30:22;101332.66;;;15.36;61.22
26657;BME280;14279;50.010;8.260;2022-07-10T05:32:48;101331.81;;;15.36;61.34
26657;BME280;14279;50.010;8.260;2022-07-10T05:35:14;101338.81;;;15.17;61.44
26657;BME280;14279;50.010;8.260;2022-07-10T05:37:39;101331.13;;;15.14;60.86
26657;BME280;14279;50.010;8.260;2022-07-10T05:40:05;101327.03;;;15.09;61.48
26657;BME280;14279;50.010;8.260;2022-07-10T05:42:30;101336.00;;;15.22;61.79
26657;BME280;14279;50.010;8.260;2022-07-10T05:44:55;101343.31;;;15.33;59.86
26657;BME280;14279;50.010;8.260;2022-07-10T05:47:21;101338.81;;;15.53;59.53
26657;BME280;14279;50.010;8.260;2022-07-10T05:49:46;101344.53;;;15.61;60.02
26657;BME280;14279;50.010;8.260;2022-07-10T05:52:11;101340.00;;;15.47;60.14
26657;BME280;14279;50.010;8.260;2022-07-10T05:54:37;101356.94;;;15.57;60.22
26657;BME280;14279;50.010;8.260;2022-07-10T05:57:03;101355.09;;;15.59;59.25
26657;BME280;14279;50.010;8.260;2022-07-10T05:59:29;101355.41;;;15.71;58.62
26657;BME280;14279;50.010;8.260;2022-07-10T06:01:57;101352.63;;;15.74;58.60
26657;BME280;14279;50.010;8.260;2022-07-10T06:04:23;101345.91;;;15.51;58.73
26657;BME280;14279;50.010;8.260;2022-07-10T06:06:48;101351.38;;;15.63;57.05
26657;BME280;14279;50.010;8.260;2022-07-10T06:09:13;101358.13;;;15.52;58.56
26657;BME280;14279;50.010;8.260;2022-07-10T06:11:38;101356.34;;;15.52;58.85
26657;BME280;14279;50.010;8.260;2022-07-10T06:14:06;101353.31;;;15.42;58.03
26657;BME280;14279;50.010;8.260;2022-07-10T06:16:32;101354.69;;;15.67;55.99
26657;BME280;14279;50.010;8.260;2022-07-10T06:18:57;101346.47;;;15.22;56.39
26657;BME280;14279;50.010;8.260;2022-07-10T06:21:22;101347.00;;;15.46;56.38
26657;BME280;14279;50.010;8.260;2022-07-10T06:23:48;101341.97;;;15.59;55.65
26657;BME280;14279;50.010;8.260;2022-07-10T06:26:13;101358.63;;;15.58;55.29
26657;BME280;14279;50.010;8.260;2022-07-10T06:28:38;101349.63;;;15.64;55.72
26657;BME280;14279;50.010;8.260;2022-07-10T06:31:06;101357.00;;;15.91;55.30
26657;BME280;14279;50.010;8.260;2022-07-10T06:33:32;101351.53;;;15.96;55.12
26657;BME280;14279;50.010;8.260;2022-07-10T06:35:57;101354.78;;;15.66;53.16
26657;BME280;14279;50.010;8.260;2022-07-10T06:38:23;101362.94;;;15.77;52.89
26657;BME280;14279;50.010;8.260;2022-07-10T06:40:49;101353.97;;;15.81;52.18
26657;BME280;14279;50.010;8.260;2022-07-10T06:43:14;101350.00;;;15.74;51.65
26657;BME280;14279;50.010;8.260;2022-07-10T06:45:40;101344.41;;;15.80;52.25
26657;BME280;14279;50.010;8.260;2022-07-10T06:48:06;101345.09;;;15.84;52.26
26657;BME280;14279;50.010;8.260;2022-07-10T06:50:31;101354.69;;;15.67;51.79
26657;BME280;14279;50.010;8.260;2022-07-10T06:52:58;101342.25;;;15.88;51.71
26657;BME280;14279;50.010;8.260;2022-07-10T06:55:24;101350.91;;;15.90;51.66
26657;BME280;14279;50.010;8.260;2022-07-10T06:57:50;101342.97;;;16.08;50.39
26657;BME280;14279;50.010;8.260;2022-07-10T07:00:15;101338.91;;;16.02;49.63
26657;BME280;14279;50.010;8.260;2022-07-10T07:02:41;101337.75;;;16.24;49.50
26657;BME280;14279;50.010;8.260;2022-07-10T07:05:06;101342.91;;;16.10;50.27
26657;BME280;14279;50.010;8.260;2022-07-10T07:07:32;101337.38;;;16.14;49.89
26657;BME280;14279;50.010;8.260;2022-07-10T07:09:58;101342.81;;;16.27;49.29
26657;BME280;14279;50.010;8.260;2022-07-10T07:12:23;101344.25;;;16.33;48.98
26657;BME280;14279;50.010;8.260;2022-07-10T07:14:48;101336.06;;;16.39;48.98
26657;BME280;14279;50.010;8.260;2022-07-10T07:17:14;101326.97;;;16.29;48.55
26657;BME280;14279;50.010;8.260;2022-07-10T07:19:46;101343.25;;;16.19;49.05
26657;BME280;14279;50.010;8.260;2022-07-10T07:22:30;101338.50;;;16.42;48.79
26657;BME280;14279;50.010;8.260;2022-07-10T07:25:14;101343.91;;;16.23;48.23
26657;BME280;14279;50.010;8.260;2022-07-10T07:27:39;101346.47;;;16.25;48.50
26657;BME280;14279;50.010;8.260;2022-07-10T07:30:10;101358.25;;;16.49;48.26
26657;BME280;14279;50.010;8.260;2022-07-10T07:32:39;101353.25;;;16.45;47.64
26657;BME280;14279;50.010;8.260;2022-07-10T07:35:05;101356.22;;;16.55;48.02
26657;BME280;14279;50.010;8.260;2022-07-10T07:37:41;101359.59;;;16.41;47.76
26657;BME280;14279;50.010;8.260;2022-07-10T07:40:08;101363.66;;;16.62;48.39
26657;BME280;14279;50.010;8.260;2022-07-10T07:42:35;101362.06;;;16.44;47.33
26657;BME280;14279;50.010;8.260;2022-07-10T07:45:00;101373.25;;;16.31;47.25
26657;BME280;14279;50.010;8.260;2022-07-10T07:47:26;101363.50;;;16.49;48.14
26657;BME280;14279;50.010;8.260;2022-07-10T07:49:51;101366.56;;;16.74;46.61
26657;BME280;14279;50.010;8.260;2022-07-10T07:52:17;101370.56;;;16.49;48.20
26657;BME280;14279;50.010;8.260;2022-07-10T07:54:42;101371.31;;;16.35;47.99
26657;BME280;14279;50.010;8.260;2022-07-10T07:57:07;101373.00;;;16.52;47.74
26657;BME280;14279;50.010;8.260;2022-07-10T07:59:33;101366.72;;;16.38;48.13
26657;BME280;14279;50.010;8.260;2022-07-10T08:02:01;101365.03;;;16.53;47.67
26657;BME280;14279;50.010;8.260;2022-07-10T08:04:26;101355.94;;;16.75;47.18
26657;BME280;14279;50.010;8.260;2022-07-10T08:06:51;101360.78;;;16.83;46.76
26657;BME280;14279;50.010;8.260;2022-07-10T08:09:18;101350.53;;;17.25;46.15
26657;BME280;14279;50.010;8.260;2022-07-10T08:11:44;101348.00;;;17.23;46.17
26657;BME280;14279;50.010;8.260;2022-07-10T08:14:09;101346.00;;;17.12;46.38
26657;BME280;14279;50.010;8.260;2022-07-10T08:16:34;101327.78;;;17.24;46.50
26657;BME280;14279;50.010;8.260;2022-07-10T08:19:00;101344.81;;;17.02;47.13
26657;BME280;14279;50.010;8.260;2022-07-10T08:21:25;101352.97;;;16.81;47.72
26657;BME280;14279;50.010;8.260;2022-07-10T08:23:51;101343.50;;;16.79;47.55
26657;BME280;14279;50.010;8.260;2022-07-10T08:26:18;101345.50;;;16.90;48.34
26657;BME280;14279;50.010;8.260;2022-07-10T08:28:43;101349.69;;;16.78;49.08
26657;BME280;14279;50.010;8.260;2022-07-10T08:31:08;101344.16;;;16.66;49.58
26657;BME280;14279;50.010;8.260;2022-07-10T08:33:33;101336.16;;;17.00;48.77
26657;BME280;14279;50.010;8.260;2022-07-10T08:35:58;101326.16;;;17.07;48.49
26657;BME280;14279;50.010;8.260;2022-07-10T08:38:43;101332.09;;;17.25;47.61
26657;BME280;14279;50.010;8.260;2022-07-10T08:41:10;101339.31;;;17.07;48.03
26657;BME280;14279;50.010;8.260;2022-07-10T08:43:37;101323.13;;;17.43;47.56
26657;BME280;14279;50.010;8.260;2022-07-10T08:46:04;101341.28;;;17.92;47.40
26657;BME280;14279;50.010;8.260;2022-07-10T08:48:32;101336.09;;;17.47;48.27
26657;BME280;14279;50.010;8.260;2022-07-10T08:51:04;101325.59;;;17.61;46.89
26657;BME280;14279;50.010;8.260;2022-07-10T08:53:32;101329.34;;;17.57;47.34
26657;BME280;14279;50.010;8.260;2022-07-10T08:55:58;101342.88;;;17.51;47.98
26657;BME280;14279;50.010;8.260;2022-07-10T08:58:23;101328.06;;;17.19;49.09
26657;BME280;14279;50.010;8.260;2022-07-10T09:00:49;101322.06;;;17.01;49.74
26657;BME280;14279;50.010;8.260;2022-07-10T09:03:18;101329.03;;;17.02;49.28
26657;BME280;14279;50.010;8.260;2022-07-10T09:05:43;101331.94;;;16.97;48.61
26657;BME280;14279;50.010;8.260;2022-07-10T09:08:26;101333.34;;;17.03;48.70
26657;BME280;14279;50.010;8.260;2022-07-10T09:11:17;101335.22;;;17.01;49.71
26657;BME280;14279;50.010;8.260;2022-07-10T09:13:53;101323.56;;;17.21;49.06
26657;BME280;14279;50.010;8.260;2022-07-10T09:16:22;101319.22;;;17.20;48.80
26657;BME280;14279;50.010;8.260;2022-07-10T09:18:48;101314.00;;;17.64;47.98
26657;BME280;14279;50.010;8.260;2022-07-10T09:21:13;101313.19;;;18.07;46.48
26657;BME280;14279;50.010;8.260;2022-07-10T09:23:38;101310.69;;;18.18;45.63
26657;BME280;14279;50.010;8.260;2022-07-10T09:26:04;101311.13;;;18.12;45.45
26657;BME280;14279;50.010;8.260;2022-07-10T09:28:29;101305.19;;;17.65;45.70
26657;BME280;14279;50.010;8.260;2022-07-10T09:30:56;101312.25;;;18.08;45.52
26657;BME280;14279;50.010;8.260;2022-07-10T09:33:25;101306.47;;;18.57;43.62
26657;BME280;14279;50.010;8.260;2022-07-10T09:36:10;101307.91;;;18.48;44.04
26657;BME280;14279;50.010;8.260;2022-07-10T09:41:16;101302.03;;;18.30;44.70
26657;BME280;14279;50.010;8.260;2022-07-10T09:43:44;101301.16;;;18.44;44.28
26657;BME280;14279;50.010;8.260;2022-07-10T09:46:10;101298.50;;;18.44;43.54
26657;BME280;14279;50.010;8.260;2022-07-10T09:48:36;101300.34;;;18.29;45.11
26657;BME280;14279;50.010;8.260;2022-07-10T09:51:02;101309.06;;;18.44;44.93
26657;BME280;14279;50.010;8.260;2022-07-10T09:53:27;101304.59;;;18.17;45.78
26657;BME280;14279;50.010;8.260;2022-07-10T09:55:53;101302.16;;;18.29;45.40
26657;BME280;14279;50.010;8.260;2022-07-10T09:58:25;101302.72;;;17.62;47.43
26657;BME280;14279;50.010;8.260;2022-07-10T10:00:55;101294.66;;;17.79;47.26
26657;BME280;14279;50.010;8.260;2022-07-10T10:03:23;101296.06;;;18.14;46.98
26657;BME280;14279;50.010;8.260;2022-07-10T10:05:53;101292.50;;;18.42;46.24
26657;BME280;14279;50.010;8.260;2022-07-10T10:08:31;101296.78;;;18.71;45.99
26657;BME280;14279;50.010;8.260;2022-07-10T10:10:57;101298.94;;;18.78;45.49
26657;BME280;14279;50.010;8.260;2022-07-10T10:13:27;101289.94;;;18.96;43.98
26657;BME280;14279;50.010;8.260;2022-07-10T10:15:54;101285.69;;;18.93;43.70
26657;BME280;14279;50.010;8.260;2022-07-10T10:18:21;101285.94;;;19.03;43.57
26657;BME280;14279;50.010;8.260;2022-07-10T10:20:48;101279.50;;;19.07;43.50
26657;BME280;14279;50.010;8.260;2022-07-10T10:23:16;101269.72;;;18.95;43.97
26657;BME280;14279;50.010;8.260;2022-07-10T10:25:43;101263.41;;;19.75;42.61
26657;BME280;14279;50.010;8.260;2022-07-10T10:28:10;101268.44;;;18.74;44.90
26657;BME280;14279;50.010;8.260;2022-07-10T10:30:39;101263.50;;;18.83;45.65
26657;BME280;14279;50.010;8.260;2022-07-10T10:35:58;101284.56;;;18.70;45.58
26657;BME280;14279;50.010;8.260;2022-07-10T10:38:23;101276.16;;;18.90;44.76
26657;BME280;14279;50.010;8.260;2022-07-10T10:40:48;101257.22;;;18.98;44.36
26657;BME280;14279;50.010;8.260;2022-07-10T10:43:19;101261.34;;;19.28;43.93
26657;BME280;14279;50.010;8.260;2022-07-10T10:45:48;101278.13;;;18.74;44.06
26657;BME280;14279;50.010;8.260;2022-07-10T10:48:14;101268.75;;;18.83;44.24
26657;BME280;14279;50.010;8.260;2022-07-10T10:50:51;101262.72;;;18.95;44.15
26657;BME280;14279;50.010;8.260;2022-07-10T10:53:25;101260.34;;;18.90;45.12
26657;BME280;14279;50.010;8.260;2022-07-10T10:58:26;101266.41;;;19.31;45.60
26657;BME280;14279;50.010;8.260;2022-07-10T11:00:51;101249.94;;;19.41;44.93
26657;BME280;14279;50.010;8.260;2022-07-10T11:03:21;101263.78;;;19.44;43.45
26657;BME280;14279;50.010;8.260;2022-07-10T11:05:49;101257.31;;;19.61;42.66
26657;BME280;14279;50.010;8.260;2022-07-10T11:08:41;101251.69;;;19.92;42.48
26657;BME280;14279;50.010;8.260;2022-07-10T11:11:37;101241.97;;;20.17;41.69
26657;BME280;14279;50.010;8.260;2022-07-10T11:14:03;101249.91;;;19.79;41.75
26657;BME280;14279;50.010;8.260;2022-07-10T11:16:31;101272.19;;;19.75;41.53
26657;BME280;14279;50.010;8.260;2022-07-10T11:18:57;101247.09;;;20.07;40.92
26657;BME280;14279;50.010;8.260;2022-07-10T11:21:24;101250.84;;;20.64;40.18
26657;BME280;14279;50.010;8.260;2022-07-10T11:24:23;101262.97;;;19.81;41.34
26657;BME280;14279;50.010;8.260;2022-07-10T11:27:02;101238.44;;;20.05;41.44
26657;BME280;14279;50.010;8.260;2022-07-10T11:29:36;101234.13;;;20.64;40.43
26657;BME280;14279;50.010;8.260;2022-07-10T11:32:01;101231.94;;;20.82;40.27
26657;BME280;14279;50.010;8.260;2022-07-10T11:34:34;101242.66;;;20.92;40.75
26657;BME280;14279;50.010;8.260;2022-07-10T11:37:00;101235.91;;;20.27;41.49
26657;BME280;14279;50.010;8.260;2022-07-10T11:39:25;101231.00;;;20.58;41.43
26657;BME280;14279;50.010;8.260;2022-07-10T11:41:50;101240.03;;;20.07;41.72
26657;BME280;14279;50.010;8.260;2022-07-10T11:44:17;101238.66;;;20.02;42.12
26657;BME280;14279;50.010;8.260;2022-07-10T11:46:43;101240.06;;;19.94;41.95
26657;BME280;14279;50.010;8.260;2022-07-10T11:49:15;101237.28;;;19.96;41.70
26657;BME280;14279;50.010;8.260;2022-07-10T11:51:41;101239.03;;;20.21;41.69
26657;BME280;14279;50.010;8.260;2022-07-10T11:54:13;101242.19;;;20.13;42.17
26657;BME280;14279;50.010;8.260;2022-07-10T11:56:45;101248.38;;;20.01;42.26
26657;BME280;14279;50.010;8.260;2022-07-10T11:59:13;101242.09;;;20.15;42.38
26657;BME280;14279;50.010;8.260;2022-07-10T12:04:09;101234.69;;;20.20;41.78
26657;BME280;14279;50.010;8.260;2022-07-10T12:06:37;101230.03;;;20.35;41.95
26657;BME280;14279;50.010;8.260;2022-07-10T12:09:04;101228.44;;;20.81;41.20
26657;BME280;14279;50.010;8.260;2022-07-10T12:11:29;101214.66;;;21.12;40.52
26657;BME280;14279;50.010;8.260;2022-07-10T12:14:09;101224.31;;;21.47;39.85
26657;BME280;14279;50.010;8.260;2022-07-10T12:16:38;101226.66;;;20.93;40.78
26657;BME280;14279;50.010;8.260;2022-07-10T12:19:05;101235.00;;;20.76;40.81
26657;BME280;14279;50.010;8.260;2022-07-10T12:21:31;101224.03;;;21.16;41.00
26657;BME280;14279;50.010;8.260;2022-07-10T12:23:57;101220.53;;;21.04;41.03
26657;BME280;14279;50.010;8.260;2022-07-10T12:26:22;101225.38;;;21.33;40.63
26657;BME280;14279;50.010;8.260;2022-07-10T12:28:55;101222.78;;;20.86;41.24
26657;BME280;14279;50.010;8.260;2022-07-10T12:31:24;101217.53;;;21.09;41.32
26657;BME280;14279;50.010;8.260;2022-07-10T12:33:51;101237.88;;;20.37;42.57
26657;BME280;14279;50.010;8.260;2022-07-10T12:36:17;101215.69;;;20.51;42.48
26657;BME280;14279;50.010;8.260;2022-07-10T12:38:52;101213.22;;;20.72;42.53
26657;BME280;14279;50.010;8.260;2022-07-10T12:41:18;101220.88;;;20.88;42.48
26657;BME280;14279;50.010;8.260;2022-07-10T12:43:48;101225.94;;;20.80;42.02
26657;BME280;14279;50.010;8.260;2022-07-10T12:46:17;101219.81;;;20.66;41.81
26657;BME280;14279;50.010;8.260;2022-07-10T12:49:07;101214.13;;;20.84;41.72
26657;BME280;14279;50.010;8.260;2022-07-10T12:51:45;101215.94;;;20.83;42.10
26657;BME280;14279;50.010;8.260;2022-07-10T12:56:57;101232.44;;;20.27;43.16
26657;BME280;14279;50.010;8.260;2022-07-10T12:59:23;101216.19;;;20.20;43.73
26657;BME280;14279;50.010;8.260;2022-07-10T13:01:48;101223.03;;;20.23;43.35
26657;BME280;14279;50.010;8.260;2022-07-10T13:04:14;101229.66;;;20.53;42.99